Main page
METAR-TAF:

METAR-TAF

Airports :

Sumburgh Airport

Sumburgh, Shetland, Scotland

latitude: 59-53N, longitude: 001-18W, elevation: 5 m

Current weather observation

The report was made 37 minutes ago, at 02:20 UTC
Wind 7 kt from the South
Temperature 12°C
Humidity 100%
Pressure 1004 hPa
Visibility 10 km or more

METAR: EGPB 260220Z AUTO 17007KT 9999 NCD 12/12 Q1004

Time: 03:57 (02:57 UTC)

Forecast

The report was made 1 hour and 2 minutes ago, at 01:55 UTC
Forecast valid from 26 at 03 UTC to 26 at 12 UTC
Wind 12 kt from the South
Visibility 10 km or more
Few clouds at a height of 1000 ft
Scattered clouds at a height of 4000 ft
Becoming
from 26 at 03 UTC to 26 at 05 UTC
Wind 20 kt from the South with gusts up to 30 kt
Probability 30% :
Temporary
from 26 at 03 UTC to 26 at 12 UTC
Visibility: 6000 m
Broken clouds at a height of 600 ft
light rain

TAF: EGPB 260155Z 2603/2612 18012KT 9999 FEW010 SCT040 BECMG 2603/2605 17020G30KT PROB30 TEMPO 2603/2612 6000 -RA BKN006

Weather observations and forecasts of more than 4000 airports (METAR and TAF reports).

The available stations are represented by yellow and red dots on the map.

Hover mouse over dot to see the name of the station.

Then click to see weather observations and forecasts.

To change the map : click on the green buttons with a black cross to zoom in, on the green button with a dash to zoom out, or on the green arrows for adjacent maps.


METAR-TAF: